Time;durP1;ratioP1;P1;durP2;ratioP2;P2;SDS_P1;SDS_P2;PMS_P1;PMS_P2;Temp;Humidity;BMP_temperature;BMP_pressure;BME280_temperature;BME280_humidity;BME280_pressure;Samples;Min_cycle;Max_cycle;Signal;HPM_P1;HPM_P2
2022/08/16 00:02:10;;;;;;;2.17;1.52;;;22.60;92.20;;;;;;4981697;28;20230;-76
2022/08/16 00:04:40;;;;;;;1.83;1.58;;;22.60;92.20;;;;;;4972893;28;20280;-75
2022/08/16 00:07:06;;;;;;;2.13;1.70;;;22.60;92.70;;;;;;4973443;28;20450;-75
2022/08/16 00:09:32;;;;;;;2.15;1.52;;;22.60;92.50;;;;;;4998614;28;20236;-75
2022/08/16 00:11:58;;;;;;;2.10;1.67;;;22.60;92.60;;;;;;4988344;28;20206;-74
2022/08/16 00:14:30;;;;;;;1.90;1.55;;;22.50;92.80;;;;;;4980474;28;20354;-75
2022/08/16 00:16:56;;;;;;;2.08;1.70;;;22.50;93.10;;;;;;4981028;28;20188;-74
2022/08/16 00:19:27;;;;;;;1.70;1.60;;;22.50;92.90;;;;;;4993085;28;20231;-75
2022/08/16 00:21:56;;;;;;;1.65;1.30;;;22.50;93.30;;;;;;4971198;28;20218;-75
2022/08/16 00:24:25;;;;;;;1.60;1.50;;;22.40;93.30;;;;;;4992380;28;20183;-75
2022/08/16 00:26:51;;;;;;;2.28;1.50;;;22.40;93.20;;;;;;4989447;28;20176;-75
2022/08/16 00:29:19;;;;;;;2.00;1.65;;;22.40;93.20;;;;;;4991844;28;20200;-76
2022/08/16 00:31:47;;;;;;;2.28;1.50;;;22.40;93.30;;;;;;4973824;28;20187;-75
2022/08/16 00:34:16;;;;;;;1.75;1.45;;;22.40;93.50;;;;;;4971940;28;20194;-76
2022/08/16 00:36:45;;;;;;;1.40;1.30;;;22.40;93.70;;;;;;4989415;28;20228;-76
2022/08/16 00:39:12;;;;;;;1.88;1.50;;;22.40;93.60;;;;;;4982627;28;20184;-75
2022/08/16 00:41:37;;;;;;;1.60;1.45;;;22.40;93.70;;;;;;4988664;28;20200;-76
2022/08/16 00:44:09;;;;;;;2.10;1.70;;;22.40;93.80;;;;;;4992228;28;20259;-76
2022/08/16 00:47:04;;;;;;;1.50;1.40;;;22.40;94.00;;;;;;4975162;28;20187;-75
2022/08/16 00:49:30;;;;;;;1.40;1.30;;;22.40;94.20;;;;;;4974111;28;20215;-75
2022/08/16 00:51:58;;;;;;;1.50;1.40;;;22.50;94.10;;;;;;4996137;28;20181;-75
2022/08/16 00:54:27;;;;;;;1.73;1.40;;;22.50;94.20;;;;;;4993598;28;20230;-76
2022/08/16 00:56:54;;;;;;;1.80;1.70;;;22.50;94.40;;;;;;4974928;28;20231;-76
2022/08/16 00:59:23;;;;;;;1.48;1.35;;;22.50;94.40;;;;;;4975392;28;20179;-76
2022/08/16 01:01:50;;;;;;;2.40;1.50;;;22.50;94.50;;;;;;4975970;28;20214;-75
2022/08/16 01:04:22;;;;;;;1.80;1.50;;;22.60;94.50;;;;;;4994169;28;20203;-76
2022/08/16 01:06:51;;;;;;;1.50;1.40;;;22.60;94.90;;;;;;4991088;28;20183;-76
2022/08/16 01:09:17;;;;;;;1.60;1.50;;;22.60;94.90;;;;;;4964925;28;20235;-76
2022/08/16 01:11:45;;;;;;;1.60;1.45;;;22.60;94.60;;;;;;4976703;28;20288;-76
2022/08/16 01:14:20;;;;;;;2.22;1.77;;;22.60;94.80;;;;;;4988408;28;20215;-75
2022/08/16 01:16:47;;;;;;;1.42;1.33;;;22.70;94.90;;;;;;4983785;28;20209;-73
2022/08/16 01:19:19;;;;;;;1.70;1.50;;;22.70;94.70;;;;;;4993599;28;20200;-76
2022/08/16 01:21:51;;;;;;;1.60;1.50;;;22.70;94.90;;;;;;4986360;28;20203;-75
2022/08/16 01:24:31;;;;;;;1.80;1.60;;;22.70;94.70;;;;;;4977063;28;20191;-75
2022/08/16 01:27:08;;;;;;;1.50;1.40;;;22.70;95.00;;;;;;4993107;28;20196;-77
2022/08/16 01:29:52;;;;;;;1.55;1.40;;;22.70;95.10;;;;;;4960748;28;20161;-77
2022/08/16 01:32:17;;;;;;;2.08;1.60;;;22.70;95.10;;;;;;4975202;28;20200;-76
2022/08/16 01:34:44;;;;;;;2.60;1.80;;;22.70;94.70;;;;;;4973063;28;20187;-76
2022/08/16 01:37:12;;;;;;;1.48;1.38;;;22.70;94.70;;;;;;4978776;28;20189;-76
2022/08/16 01:39:38;;;;;;;1.60;1.35;;;22.70;94.90;;;;;;4980632;28;20180;-76
2022/08/16 01:42:07;;;;;;;1.92;1.40;;;22.70;94.80;;;;;;4980611;28;20336;-76
2022/08/16 01:44:34;;;;;;;1.83;1.70;;;22.70;94.90;;;;;;4979276;28;20207;-76
2022/08/16 01:47:00;;;;;;;2.20;1.55;;;22.70;95.00;;;;;;4978248;28;20180;-76
2022/08/16 01:49:34;;;;;;;1.50;1.40;;;22.60;95.00;;;;;;4996061;28;20187;-75
2022/08/16 01:52:07;;;;;;;2.25;1.60;;;22.60;95.30;;;;;;4959530;29;20211;-75
2022/08/16 01:54:36;;;;;;;1.70;1.60;;;22.60;95.50;;;;;;4995489;28;20226;-76
2022/08/16 01:57:03;;;;;;;1.55;1.30;;;22.60;95.30;;;;;;4994049;28;20176;-75
2022/08/16 01:59:30;;;;;;;1.80;1.60;;;22.60;95.40;;;;;;4974621;28;22147;-76
2022/08/16 02:01:59;;;;;;;2.38;1.48;;;22.50;95.40;;;;;;4976935;28;20333;-76
2022/08/16 02:04:26;;;;;;;2.63;1.80;;;22.50;95.40;;;;;;4993682;28;20176;-76
2022/08/16 02:06:52;;;;;;;1.90;1.70;;;22.50;95.60;;;;;;4994515;28;20211;-76
2022/08/16 02:09:22;;;;;;;1.95;1.50;;;22.50;95.70;;;;;;4973596;28;20177;-76
2022/08/16 02:11:54;;;;;;;1.70;1.55;;;22.50;95.90;;;;;;4994512;28;20171;-76
2022/08/16 02:14:28;;;;;;;2.08;1.70;;;22.50;95.90;;;;;;4983773;28;20177;-73
2022/08/16 02:16:56;;;;;;;1.65;1.42;;;22.50;96.00;;;;;;4975772;28;20214;-75
2022/08/16 02:19:26;;;;;;;1.40;1.30;;;22.50;95.90;;;;;;4972050;28;20185;-76
2022/08/16 02:21:53;;;;;;;2.25;1.63;;;22.40;95.80;;;;;;4973556;28;20196;-76
2022/08/16 02:24:21;;;;;;;1.52;1.30;;;22.40;95.80;;;;;;4991244;28;20187;-76
2022/08/16 02:26:47;;;;;;;1.73;1.40;;;22.40;95.90;;;;;;4981294;28;20176;-77
2022/08/16 02:29:13;;;;;;;2.05;1.60;;;22.30;95.90;;;;;;4974879;28;20453;-76
2022/08/16 02:31:43;;;;;;;1.50;1.40;;;22.40;96.00;;;;;;4976932;28;20183;-75
2022/08/16 02:34:11;;;;;;;1.73;1.40;;;22.30;96.30;;;;;;4977911;28;20200;-76
2022/08/16 02:36:37;;;;;;;1.67;1.58;;;22.30;96.10;;;;;;4993328;28;20176;-75
2022/08/16 02:39:05;;;;;;;1.50;1.40;;;22.30;96.20;;;;;;4991655;28;20243;-77
2022/08/16 02:41:32;;;;;;;1.58;1.42;;;22.20;96.40;;;;;;4977149;28;20242;-77
2022/08/16 02:43:58;;;;;;;1.42;1.30;;;22.20;96.40;;;;;;4974745;28;20177;-76
2022/08/16 02:46:24;;;;;;;2.20;1.50;;;22.10;96.40;;;;;;4988958;28;20258;-76
2022/08/16 02:48:50;;;;;;;1.77;1.63;;;22.10;96.60;;;;;;4977061;28;20200;-75
2022/08/16 02:51:18;;;;;;;1.95;1.60;;;22.10;96.70;;;;;;4985447;28;20276;-76
2022/08/16 02:53:50;;;;;;;1.80;1.60;;;22.10;96.90;;;;;;4992444;28;20184;-75
2022/08/16 02:56:17;;;;;;;1.58;1.48;;;22.00;97.00;;;;;;4973028;28;20207;-76
2022/08/16 02:58:48;;;;;;;3.72;1.67;;;22.00;97.10;;;;;;4991089;28;20192;-77
2022/08/16 03:01:16;;;;;;;1.88;1.70;;;21.90;97.40;;;;;;4993853;28;20177;-74
2022/08/16 03:03:42;;;;;;;2.08;1.70;;;21.90;97.40;;;;;;4974540;28;20188;-77
2022/08/16 03:06:08;;;;;;;1.90;1.60;;;21.90;97.50;;;;;;4977249;28;20191;-76
2022/08/16 03:08:34;;;;;;;1.88;1.67;;;21.90;97.60;;;;;;4991712;28;20255;-76
2022/08/16 03:11:03;;;;;;;1.70;1.58;;;21.90;97.70;;;;;;4974801;28;20211;-76
2022/08/16 03:13:33;;;;;;;1.90;1.80;;;21.80;97.90;;;;;;4990610;28;20177;-77
2022/08/16 03:15:59;;;;;;;1.50;1.40;;;21.80;98.10;;;;;;4978702;28;20271;-76
2022/08/16 03:18:25;;;;;;;1.83;1.63;;;21.80;98.40;;;;;;4978109;28;20199;-76
2022/08/16 03:20:55;;;;;;;2.42;1.60;;;21.80;98.30;;;;;;4993867;28;20197;-77
2022/08/16 03:23:21;;;;;;;3.20;1.70;;;21.80;98.50;;;;;;4975238;28;20258;-78
2022/08/16 03:25:46;;;;;;;2.38;1.90;;;21.70;98.40;;;;;;4975703;28;20176;-76
2022/08/16 03:28:13;;;;;;;1.58;1.48;;;21.80;98.70;;;;;;4984693;28;20262;-76
2022/08/16 03:30:41;;;;;;;3.08;2.72;;;21.80;98.80;;;;;;4975003;28;20197;-76
2022/08/16 03:33:07;;;;;;;2.40;1.77;;;21.70;98.80;;;;;;4987238;28;20192;-76
2022/08/16 03:35:34;;;;;;;3.00;1.90;;;21.70;98.90;;;;;;4990735;28;20180;-76
2022/08/16 03:38:08;;;;;;;1.95;1.75;;;21.80;99.10;;;;;;4986624;28;20231;-76
2022/08/16 03:40:34;;;;;;;1.95;1.75;;;21.70;99.70;;;;;;4977150;28;20179;-76
2022/08/16 03:43:04;;;;;;;2.08;1.75;;;21.70;99.20;;;;;;4972009;28;20232;-76
2022/08/16 03:45:30;;;;;;;1.80;1.70;;;21.70;99.30;;;;;;4959161;28;20207;-76
2022/08/16 03:47:56;;;;;;;2.22;1.88;;;21.70;99.50;;;;;;4983574;28;20290;-76
2022/08/16 03:50:22;;;;;;;2.38;1.70;;;21.60;99.60;;;;;;4992411;28;20289;-76
2022/08/16 03:52:48;;;;;;;1.90;1.70;;;21.60;99.70;;;;;;4977336;28;20208;-75
2022/08/16 03:55:13;;;;;;;2.63;1.90;;;21.60;99.70;;;;;;4979363;28;20194;-76
2022/08/16 03:57:39;;;;;;;2.78;2.40;;;21.60;99.80;;;;;;4990412;28;20226;-76
2022/08/16 04:00:26;;;;;;;2.08;1.88;;;21.60;99.90;;;;;;4996018;28;20204;-76
2022/08/16 04:02:55;;;;;;;2.13;1.92;;;21.60;99.90;;;;;;4977997;28;20285;-76
2022/08/16 04:05:21;;;;;;;1.90;1.70;;;21.60;99.90;;;;;;4975159;28;20176;-75
2022/08/16 04:07:47;;;;;;;2.10;1.90;;;21.60;99.90;;;;;;4992857;28;20176;-76
2022/08/16 04:10:15;;;;;;;3.17;2.00;;;21.50;99.90;;;;;;4976045;28;20180;-75
2022/08/16 04:12:46;;;;;;;2.00;1.80;;;21.50;99.90;;;;;;4981844;28;20195;-77
2022/08/16 04:15:16;;;;;;;2.50;2.30;;;21.50;99.90;;;;;;5003911;28;20187;-75
2022/08/16 04:17:42;;;;;;;4.25;3.13;;;21.50;99.90;;;;;;4973394;28;20199;-77
2022/08/16 04:20:09;;;;;;;4.55;3.17;;;21.40;99.90;;;;;;5001639;28;20238;-78
2022/08/16 04:22:36;;;;;;;4.00;3.00;;;21.40;99.90;;;;;;4991928;28;20295;-78
2022/08/16 04:25:03;;;;;;;2.95;2.63;;;21.50;99.90;;;;;;4996095;28;20255;-77
2022/08/16 04:27:29;;;;;;;2.47;2.28;;;21.50;99.90;;;;;;4991630;28;20195;-76
2022/08/16 04:29:56;;;;;;;2.15;1.92;;;21.40;99.90;;;;;;4996776;28;20199;-78
2022/08/16 04:32:22;;;;;;;2.47;2.00;;;21.40;99.90;;;;;;4993383;28;20183;-77
2022/08/16 04:34:47;;;;;;;2.35;1.90;;;21.40;99.90;;;;;;4992338;28;20210;-77
2022/08/16 04:37:13;;;;;;;2.30;2.10;;;21.30;99.90;;;;;;4991440;28;20242;-78
2022/08/16 04:39:39;;;;;;;3.45;3.15;;;21.40;99.90;;;;;;4997683;28;20207;-77
2022/08/16 04:42:07;;;;;;;3.30;2.20;;;21.30;99.90;;;;;;4977460;28;20192;-78
2022/08/16 04:44:36;;;;;;;2.28;2.08;;;21.40;99.90;;;;;;4990931;28;20208;-78
2022/08/16 04:47:04;;;;;;;2.90;2.17;;;21.30;99.90;;;;;;4992864;28;20203;-76
2022/08/16 04:49:30;;;;;;;2.33;1.80;;;21.30;99.90;;;;;;4997166;28;20453;-77
2022/08/16 04:51:56;;;;;;;1.85;1.70;;;21.30;99.90;;;;;;4994497;28;20172;-77
2022/08/16 04:54:21;;;;;;;2.20;1.80;;;21.30;99.90;;;;;;4963236;28;20200;-77
2022/08/16 04:56:47;;;;;;;2.60;1.95;;;21.30;99.90;;;;;;4975142;28;20219;-78
2022/08/16 04:59:13;;;;;;;2.50;2.00;;;21.30;99.90;;;;;;4991787;28;20191;-76
2022/08/16 05:01:38;;;;;;;2.22;1.88;;;21.30;99.90;;;;;;4992223;28;20294;-77
2022/08/16 05:04:04;;;;;;;4.05;2.13;;;21.30;99.90;;;;;;4985690;28;20183;-78
2022/08/16 05:06:32;;;;;;;2.13;1.75;;;21.30;99.90;;;;;;4975033;28;20510;-78
2022/08/16 05:08:58;;;;;;;2.00;1.77;;;21.30;99.90;;;;;;4991824;28;20180;-80
2022/08/16 05:11:26;;;;;;;2.67;2.10;;;21.30;99.90;;;;;;4992074;28;20229;-68
2022/08/16 05:13:59;;;;;;;2.65;1.92;;;21.40;99.90;;;;;;4974667;28;20188;-69
2022/08/16 05:16:27;;;;;;;2.15;1.88;;;21.40;99.90;;;;;;4974868;28;20296;-68
2022/08/16 05:18:54;;;;;;;2.50;1.95;;;21.40;99.90;;;;;;4972618;28;20243;-67
2022/08/16 05:21:21;;;;;;;1.92;1.63;;;21.40;99.90;;;;;;4981742;28;20181;-67
2022/08/16 05:23:48;;;;;;;3.85;1.95;;;21.40;99.90;;;;;;4992050;28;20176;-68
2022/08/16 05:26:14;;;;;;;5.30;2.20;;;21.50;99.90;;;;;;4988039;28;20197;-67
2022/08/16 05:28:39;;;;;;;2.85;2.10;;;21.50;99.90;;;;;;4963078;28;20176;-68
2022/08/16 05:31:05;;;;;;;1.88;1.67;;;21.50;99.90;;;;;;4980645;28;20180;-70
2022/08/16 05:33:31;;;;;;;3.78;2.00;;;21.50;99.90;;;;;;4986146;28;20188;-68
2022/08/16 05:35:59;;;;;;;2.58;2.10;;;21.50;99.90;;;;;;4993182;28;20186;-67
2022/08/16 05:38:30;;;;;;;2.15;1.80;;;21.60;99.90;;;;;;4970554;28;20212;-68
2022/08/16 05:41:00;;;;;;;2.20;2.00;;;21.60;99.90;;;;;;4978733;28;20188;-68
2022/08/16 05:43:27;;;;;;;2.95;2.28;;;21.60;99.90;;;;;;4978343;28;20199;-69
2022/08/16 05:45:57;;;;;;;3.75;2.20;;;21.60;99.90;;;;;;4985275;28;20206;-67
2022/08/16 05:48:25;;;;;;;2.25;1.83;;;21.70;99.90;;;;;;4973286;28;20180;-68
2022/08/16 05:50:51;;;;;;;2.72;2.30;;;21.70;99.90;;;;;;4989598;28;20173;-68
2022/08/16 05:53:19;;;;;;;2.30;2.10;;;21.70;99.90;;;;;;4990503;28;20234;-67
2022/08/16 05:55:48;;;;;;;2.42;1.95;;;21.70;99.90;;;;;;4991163;28;20178;-68
2022/08/16 05:58:14;;;;;;;2.88;2.20;;;21.80;99.90;;;;;;4983745;28;20258;-68
2022/08/16 06:00:40;;;;;;;4.05;2.20;;;21.80;99.90;;;;;;4992778;28;20176;-68
2022/08/16 06:03:05;;;;;;;2.90;2.03;;;21.80;99.90;;;;;;4978364;28;20292;-67
2022/08/16 06:05:31;;;;;;;2.20;2.00;;;21.90;99.90;;;;;;4975391;28;20295;-68
2022/08/16 06:07:59;;;;;;;2.30;2.10;;;21.90;99.90;;;;;;4991332;28;20199;-68
2022/08/16 06:10:25;;;;;;;2.55;2.00;;;21.90;99.90;;;;;;5011430;28;20278;-67
2022/08/16 06:12:52;;;;;;;3.65;2.28;;;21.90;99.90;;;;;;4984904;28;20196;-67
2022/08/16 06:15:19;;;;;;;2.58;2.03;;;22.00;99.90;;;;;;4978305;28;20184;-68
2022/08/16 06:17:48;;;;;;;2.88;2.30;;;22.00;99.90;;;;;;4985914;28;20176;-68
2022/08/16 06:20:24;;;;;;;2.20;2.00;;;22.00;99.90;;;;;;4974121;28;20180;-74
2022/08/16 06:22:55;;;;;;;2.22;2.03;;;22.10;99.90;;;;;;4989042;28;20402;-74
2022/08/16 06:25:24;;;;;;;2.15;1.90;;;22.10;99.90;;;;;;4971107;28;20232;-73
2022/08/16 06:27:51;;;;;;;3.30;2.08;;;22.10;99.90;;;;;;4979611;28;20255;-73
2022/08/16 06:30:18;;;;;;;2.20;2.00;;;22.20;99.90;;;;;;4994646;28;20210;-74
2022/08/16 06:32:44;;;;;;;2.95;2.35;;;22.20;99.90;;;;;;4989569;28;20197;-74
2022/08/16 06:35:10;;;;;;;2.75;2.17;;;22.20;99.90;;;;;;4991997;28;20184;-73
2022/08/16 06:37:39;;;;;;;4.38;2.60;;;22.30;99.90;;;;;;4996001;28;20219;-74
2022/08/16 06:40:12;;;;;;;3.63;2.20;;;22.30;99.90;;;;;;4998354;28;20228;-73
2022/08/16 06:42:40;;;;;;;2.63;2.13;;;22.30;99.90;;;;;;4988274;28;20208;-73
2022/08/16 06:45:06;;;;;;;2.95;2.30;;;22.40;99.90;;;;;;4981388;28;20219;-74
2022/08/16 06:47:32;;;;;;;2.22;2.03;;;22.40;99.90;;;;;;4996666;28;20204;-74
2022/08/16 06:49:57;;;;;;;3.38;2.20;;;22.40;99.90;;;;;;4982896;28;20227;-73
2022/08/16 06:52:30;;;;;;;2.55;2.17;;;22.50;99.90;;;;;;4976358;28;20233;-73
2022/08/16 06:54:56;;;;;;;2.03;1.77;;;22.60;99.90;;;;;;4984536;28;20211;-74
2022/08/16 06:57:24;;;;;;;2.30;2.00;;;22.60;99.90;;;;;;4995157;28;20175;-72
2022/08/16 06:59:49;;;;;;;2.22;1.92;;;22.60;99.90;;;;;;4965839;28;20180;-74
2022/08/16 07:02:16;;;;;;;2.25;2.05;;;22.70;99.90;;;;;;4995236;28;20218;-74
2022/08/16 07:04:44;;;;;;;3.38;2.20;;;22.80;99.90;;;;;;4991304;28;20179;-73
2022/08/16 07:07:09;;;;;;;3.83;2.05;;;22.80;99.90;;;;;;4975528;28;20185;-73
2022/08/16 07:09:35;;;;;;;2.05;1.85;;;22.90;99.90;;;;;;4987916;28;20206;-73
2022/08/16 07:12:02;;;;;;;2.90;2.35;;;22.90;99.90;;;;;;4996205;28;20184;-74
2022/08/16 07:14:27;;;;;;;3.22;2.33;;;23.00;99.90;;;;;;4998765;28;20172;-73
2022/08/16 07:16:56;;;;;;;2.38;2.17;;;23.00;99.90;;;;;;4993716;28;20203;-74
2022/08/16 07:19:24;;;;;;;3.47;2.15;;;23.10;99.90;;;;;;4994002;28;20180;-73
2022/08/16 07:21:50;;;;;;;3.85;3.40;;;23.20;99.90;;;;;;4988299;28;20214;-73
2022/08/16 07:24:16;;;;;;;3.88;3.17;;;23.30;99.90;;;;;;4974749;28;20295;-74
2022/08/16 07:26:43;;;;;;;4.00;3.00;;;23.30;99.90;;;;;;4983958;28;20211;-73
2022/08/16 07:29:09;;;;;;;3.33;2.80;;;23.40;99.90;;;;;;4974318;28;20191;-71
2022/08/16 07:31:34;;;;;;;2.90;2.60;;;23.40;99.90;;;;;;4988779;28;20176;-74
2022/08/16 07:34:00;;;;;;;2.92;2.63;;;23.50;99.90;;;;;;4993175;28;20180;-74
2022/08/16 07:36:26;;;;;;;3.00;2.35;;;23.50;99.90;;;;;;4993198;28;20183;-73
2022/08/16 07:38:53;;;;;;;3.08;2.60;;;23.60;99.90;;;;;;4976976;28;20251;-73
2022/08/16 07:41:20;;;;;;;2.42;2.10;;;23.60;99.90;;;;;;4991596;28;20180;-72
2022/08/16 07:43:46;;;;;;;2.30;2.10;;;23.70;99.90;;;;;;4975962;28;20418;-73
2022/08/16 07:46:11;;;;;;;2.90;2.08;;;23.70;99.90;;;;;;4992950;28;20184;-73
2022/08/16 07:48:39;;;;;;;2.47;2.28;;;23.80;99.90;;;;;;4994271;28;20203;-75
2022/08/16 07:51:07;;;;;;;2.70;2.45;;;23.80;99.90;;;;;;4990739;28;20205;-71
2022/08/16 07:53:33;;;;;;;2.63;2.42;;;23.90;99.90;;;;;;4995053;28;20200;-74
2022/08/16 07:56:00;;;;;;;3.22;2.63;;;24.00;99.90;;;;;;4979094;28;20179;-72
2022/08/16 07:58:27;;;;;;;3.90;2.47;;;24.00;99.90;;;;;;4995152;28;20230;-74
2022/08/16 08:00:55;;;;;;;4.35;2.60;;;24.10;99.90;;;;;;4989729;28;20211;-72
2022/08/16 08:03:21;;;;;;;2.92;2.25;;;24.20;99.90;;;;;;4975725;28;20251;-73
2022/08/16 08:05:49;;;;;;;2.40;2.20;;;24.20;99.90;;;;;;4975963;28;20201;-73
2022/08/16 08:08:15;;;;;;;3.65;2.20;;;24.30;99.90;;;;;;4986018;28;20176;-73
2022/08/16 08:10:43;;;;;;;3.83;2.28;;;24.30;99.90;;;;;;4976433;28;20179;-72
2022/08/16 08:13:11;;;;;;;3.53;2.92;;;24.40;99.90;;;;;;4973286;28;20219;-73
2022/08/16 08:15:37;;;;;;;2.72;2.53;;;24.40;99.90;;;;;;4989340;28;20196;-74
2022/08/16 08:18:02;;;;;;;2.50;2.30;;;24.50;99.90;;;;;;4994358;28;20187;-72
2022/08/16 08:20:28;;;;;;;2.90;2.30;;;24.60;99.90;;;;;;4993734;28;20191;-72
2022/08/16 08:23:00;;;;;;;3.28;2.47;;;24.70;99.90;;;;;;4988978;28;20203;-74
2022/08/16 08:25:29;;;;;;;2.35;2.15;;;24.80;99.90;;;;;;4997463;28;20415;-73
2022/08/16 08:27:54;;;;;;;2.15;2.00;;;24.90;99.90;;;;;;4985312;28;20180;-72
2022/08/16 08:30:20;;;;;;;2.40;2.20;;;24.90;99.90;;;;;;4974334;28;20198;-73
2022/08/16 08:32:48;;;;;;;3.05;2.05;;;25.00;99.90;;;;;;4990204;28;20216;-73
2022/08/16 08:35:19;;;;;;;2.90;2.20;;;25.10;99.90;;;;;;4973673;28;20244;-73
2022/08/16 08:37:44;;;;;;;2.95;2.40;;;25.20;99.90;;;;;;4976687;28;20188;-73
2022/08/16 08:40:11;;;;;;;3.22;2.35;;;25.30;99.90;;;;;;4976070;28;20177;-73
2022/08/16 08:42:42;;;;;;;2.25;2.03;;;25.40;99.90;;;;;;4977403;28;20200;-72
2022/08/16 08:45:12;;;;;;;2.38;2.17;;;25.40;99.90;;;;;;4976158;28;20172;-73
2022/08/16 08:47:38;;;;;;;2.80;2.35;;;25.50;99.90;;;;;;4994196;28;20172;-73
2022/08/16 08:50:05;;;;;;;2.50;2.30;;;25.60;99.90;;;;;;4985931;28;20180;-73
2022/08/16 08:52:33;;;;;;;2.28;2.08;;;25.70;99.90;;;;;;4977917;28;20183;-73
2022/08/16 08:55:03;;;;;;;2.30;2.05;;;25.70;99.90;;;;;;4976230;28;20204;-73
2022/08/16 08:57:31;;;;;;;4.70;2.28;;;25.70;99.90;;;;;;4977836;28;20221;-73
2022/08/16 08:59:57;;;;;;;2.53;2.20;;;25.80;99.90;;;;;;4993329;28;20173;-72
2022/08/16 09:02:28;;;;;;;2.80;2.50;;;25.90;99.90;;;;;;4978423;28;20234;-73
2022/08/16 09:04:53;;;;;;;4.43;2.38;;;26.00;99.90;;;;;;4979785;28;20191;-73
2022/08/16 09:07:20;;;;;;;2.55;2.35;;;26.00;99.90;;;;;;4976519;28;20176;-75
2022/08/16 09:09:46;;;;;;;3.15;2.40;;;26.10;99.90;;;;;;4990025;28;20192;-73
2022/08/16 09:12:12;;;;;;;2.50;2.30;;;26.20;99.90;;;;;;4976052;28;20262;-73
2022/08/16 09:14:38;;;;;;;2.70;2.35;;;26.30;99.90;;;;;;4962887;28;20199;-73
2022/08/16 09:17:05;;;;;;;3.45;2.20;;;26.30;99.90;;;;;;4993136;28;20272;-73
2022/08/16 09:19:32;;;;;;;2.33;2.13;;;26.40;99.90;;;;;;4982519;28;20184;-71
2022/08/16 09:22:00;;;;;;;2.78;2.35;;;26.40;99.90;;;;;;4995566;28;20200;-73
2022/08/16 09:24:25;;;;;;;2.38;2.00;;;26.50;99.90;;;;;;4984605;28;20196;-73
2022/08/16 09:26:56;;;;;;;2.83;2.58;;;26.50;99.90;;;;;;4994650;28;20187;-73
2022/08/16 09:29:23;;;;;;;3.80;2.35;;;26.60;99.90;;;;;;4979225;28;20314;-73
2022/08/16 09:31:49;;;;;;;2.97;2.20;;;26.70;99.90;;;;;;4997396;28;20190;-72
2022/08/16 09:34:18;;;;;;;2.50;2.30;;;26.80;99.90;;;;;;4994486;28;20185;-71
2022/08/16 09:36:46;;;;;;;3.92;2.40;;;26.90;99.90;;;;;;4983996;28;20272;-73
2022/08/16 09:39:12;;;;;;;2.75;2.40;;;27.00;99.80;;;;;;4988475;28;20271;-72
2022/08/16 09:41:38;;;;;;;4.93;2.45;;;27.10;99.70;;;;;;4995401;28;20263;-72
2022/08/16 09:44:05;;;;;;;3.47;2.67;;;27.20;99.40;;;;;;4981296;28;20176;-73
2022/08/16 09:46:31;;;;;;;3.95;2.33;;;27.20;99.20;;;;;;4981145;28;20187;-73
2022/08/16 09:48:59;;;;;;;2.88;2.50;;;27.30;98.90;;;;;;4996023;28;20228;-73
2022/08/16 09:51:28;;;;;;;2.88;2.30;;;27.40;98.60;;;;;;4998391;28;20176;-74
2022/08/16 09:53:54;;;;;;;2.50;2.30;;;27.50;98.40;;;;;;5000484;28;20192;-73
2022/08/16 09:56:32;;;;;;;4.15;2.67;;;27.60;98.10;;;;;;5003049;28;20200;-74
2022/08/16 09:58:59;;;;;;;2.83;2.20;;;27.70;97.30;;;;;;4966987;28;20164;-74
2022/08/16 10:01:25;;;;;;;2.30;2.10;;;27.70;97.60;;;;;;4976004;28;20204;-73
2022/08/16 10:03:52;;;;;;;2.42;2.20;;;27.80;97.60;;;;;;4987441;28;20270;-74
2022/08/16 10:06:22;;;;;;;2.85;2.33;;;27.90;97.40;;;;;;4990686;28;20176;-75
2022/08/16 10:08:53;;;;;;;2.53;2.20;;;28.00;97.40;;;;;;4985433;28;20260;-72
2022/08/16 10:14:06;;;;;;;2.42;2.05;;;28.20;97.00;;;;;;4979614;28;20175;-74
2022/08/16 10:16:32;;;;;;;2.35;2.15;;;28.30;96.70;;;;;;4971171;28;20198;-74
2022/08/16 10:18:58;;;;;;;3.20;2.60;;;28.50;96.30;;;;;;4984131;28;20516;-74
2022/08/16 10:21:23;;;;;;;2.53;2.30;;;28.90;95.90;;;;;;4989641;28;20180;-74
2022/08/16 10:23:54;;;;;;;2.13;1.92;;;29.20;95.50;;;;;;4994189;28;20254;-74
2022/08/16 10:26:23;;;;;;;3.80;2.30;;;29.60;95.20;;;;;;4994720;28;20164;-75
2022/08/16 10:28:49;;;;;;;3.22;2.45;;;30.10;94.60;;;;;;4989750;28;20184;-74
2022/08/16 10:31:15;;;;;;;3.60;2.22;;;30.50;93.00;;;;;;4981538;28;20191;-72
2022/08/16 10:33:40;;;;;;;3.15;2.30;;;30.90;92.30;;;;;;4996392;28;20184;-73
2022/08/16 10:36:07;;;;;;;2.60;2.33;;;31.20;92.00;;;;;;4998871;28;20192;-72
2022/08/16 10:38:38;;;;;;;2.20;2.00;;;31.50;91.40;;;;;;5003037;28;20180;-69
2022/08/16 10:41:06;;;;;;;2.47;2.00;;;31.80;90.20;;;;;;4963373;28;20183;-71
2022/08/16 10:43:35;;;;;;;2.50;2.00;;;32.10;90.20;;;;;;4967224;28;20242;-72
2022/08/16 10:46:04;;;;;;;2.38;1.88;;;32.40;89.60;;;;;;4994257;28;20176;-72
2022/08/16 10:48:32;;;;;;;2.17;1.80;;;32.60;87.80;;;;;;4998900;28;20176;-72
2022/08/16 10:50:58;;;;;;;2.20;2.00;;;32.80;88.60;;;;;;4995458;28;20199;-72
2022/08/16 10:53:31;;;;;;;3.40;2.00;;;33.00;86.50;;;;;;5002196;28;20195;-69
2022/08/16 10:56:00;;;;;;;2.13;1.90;;;33.00;83.70;;;;;;4961931;29;20187;-73
2022/08/16 10:58:27;;;;;;;2.70;2.40;;;33.00;84.50;;;;;;4971788;28;20179;-72
2022/08/16 11:00:52;;;;;;;2.33;2.00;;;33.10;83.80;;;;;;4979296;28;20183;-73
2022/08/16 11:03:22;;;;;;;4.32;2.53;;;33.10;82.90;;;;;;4991996;28;20430;-72
2022/08/16 11:05:48;;;;;;;4.25;2.28;;;33.20;81.00;;;;;;4959995;29;20267;-72
2022/08/16 11:08:14;;;;;;;3.53;2.10;;;33.20;80.10;;;;;;4963360;28;20187;-73
2022/08/16 11:10:43;;;;;;;2.63;2.10;;;33.20;79.80;;;;;;4960768;28;20204;-73
2022/08/16 11:13:13;;;;;;;3.60;2.10;;;33.30;78.80;;;;;;4979068;28;20300;-71
2022/08/16 11:15:43;;;;;;;2.50;2.30;;;33.30;78.80;;;;;;4996170;28;20259;-74
2022/08/16 11:18:10;;;;;;;2.88;2.13;;;33.30;75.80;;;;;;4975979;28;20212;-74
2022/08/16 11:20:37;;;;;;;2.55;1.85;;;33.40;77.40;;;;;;4988545;28;20201;-74
2022/08/16 11:23:03;;;;;;;2.05;1.80;;;33.50;76.70;;;;;;4981787;28;20188;-74
2022/08/16 11:25:34;;;;;;;3.30;1.90;;;33.50;77.00;;;;;;4993312;28;20187;-73
2022/08/16 11:28:01;;;;;;;3.17;1.85;;;33.60;76.00;;;;;;4993730;28;20189;-73
2022/08/16 11:30:28;;;;;;;5.65;2.10;;;33.70;75.70;;;;;;4991138;28;20215;-74
2022/08/16 11:32:57;;;;;;;2.55;1.80;;;33.90;75.30;;;;;;4976372;28;20179;-74
2022/08/16 11:35:26;;;;;;;2.30;2.10;;;34.00;75.00;;;;;;4993515;28;20179;-73
2022/08/16 11:37:55;;;;;;;2.78;2.10;;;34.10;71.60;;;;;;4983286;28;20204;-74
2022/08/16 11:40:25;;;;;;;2.75;1.85;;;34.20;71.60;;;;;;4987269;28;20230;-72
2022/08/16 11:42:52;;;;;;;1.85;1.70;;;34.20;71.80;;;;;;4992584;28;20191;-74
2022/08/16 11:45:18;;;;;;;2.80;2.05;;;34.30;71.80;;;;;;4993941;28;20175;-73
2022/08/16 11:47:44;;;;;;;4.18;1.90;;;34.30;71.20;;;;;;4976120;28;20184;-73
2022/08/16 11:50:12;;;;;;;2.30;1.83;;;34.40;71.10;;;;;;4968898;28;20350;-73
2022/08/16 11:52:38;;;;;;;2.97;1.80;;;34.50;70.60;;;;;;4990932;28;20282;-73
2022/08/16 11:55:09;;;;;;;3.08;1.80;;;34.60;69.90;;;;;;4973363;28;20180;-74
2022/08/16 11:57:35;;;;;;;3.83;2.15;;;34.70;68.30;;;;;;4984811;28;20293;-74
2022/08/16 12:00:09;;;;;;;2.80;2.50;;;34.80;67.90;;;;;;4991974;28;20182;-72
2022/08/16 12:02:37;;;;;;;3.40;1.90;;;34.90;67.60;;;;;;4979056;28;20244;-73
2022/08/16 12:05:05;;;;;;;3.35;1.98;;;35.00;66.90;;;;;;4992170;28;20203;-73
2022/08/16 12:07:30;;;;;;;1.75;1.63;;;35.00;65.40;;;;;;4992952;28;20180;-74
2022/08/16 12:09:56;;;;;;;2.67;1.77;;;35.00;64.10;;;;;;4991954;28;20171;-75
2022/08/16 12:12:22;;;;;;;3.72;2.00;;;35.10;64.50;;;;;;4981105;28;20206;-74
2022/08/16 12:14:47;;;;;;;1.80;1.70;;;35.10;63.70;;;;;;4978772;28;20246;-74
2022/08/16 12:17:13;;;;;;;1.98;1.60;;;35.10;62.70;;;;;;4995312;28;20198;-73
2022/08/16 12:19:40;;;;;;;2.42;1.70;;;35.00;62.20;;;;;;4993371;28;20183;-74
2022/08/16 12:22:10;;;;;;;2.63;1.63;;;35.00;62.40;;;;;;4989891;28;20195;-74
2022/08/16 12:24:41;;;;;;;2.10;1.85;;;34.90;62.30;;;;;;4992886;28;20226;-73
2022/08/16 12:27:08;;;;;;;2.13;1.50;;;35.00;61.60;;;;;;4997620;28;20207;-74
2022/08/16 12:29:35;;;;;;;2.15;1.50;;;35.10;61.50;;;;;;4979127;28;20200;-74
2022/08/16 12:32:03;;;;;;;2.72;1.80;;;35.20;60.10;;;;;;4972846;28;20263;-73
2022/08/16 12:34:31;;;;;;;2.22;1.67;;;35.20;59.80;;;;;;4990225;28;20214;-74
2022/08/16 12:37:04;;;;;;;2.47;1.52;;;35.40;59.40;;;;;;4988069;28;20179;-75
2022/08/16 12:39:30;;;;;;;2.95;1.60;;;35.50;59.00;;;;;;4973116;28;20208;-75
2022/08/16 12:41:56;;;;;;;2.38;1.70;;;35.50;58.90;;;;;;4976939;28;20204;-73
2022/08/16 12:44:25;;;;;;;3.28;1.80;;;35.60;58.30;;;;;;4989401;28;20171;-73
2022/08/16 12:49:40;;;;;;;1.83;1.60;;;35.80;58.20;;;;;;4979455;28;20162;-74
2022/08/16 12:52:06;;;;;;;2.30;1.60;;;36.00;58.20;;;;;;4976312;28;20175;-74
2022/08/16 12:54:32;;;;;;;1.95;1.42;;;36.10;58.00;;;;;;4983672;28;20202;-73
2022/08/16 12:57:02;;;;;;;2.17;1.52;;;36.30;57.10;;;;;;4973829;28;20180;-73